createdAt,value
2023-03-18T00:01:04.099Z,100079.25
2023-03-18T00:03:32.628Z,100077.59
2023-03-18T00:06:05.408Z,100081.72
2023-03-18T00:08:33.875Z,100082.56
2023-03-18T00:11:05.503Z,100081.72
2023-03-18T00:13:34.613Z,100074.25
2023-03-18T00:16:03.097Z,100078.09
2023-03-18T00:18:31.536Z,100088.69
2023-03-18T00:21:00.897Z,100050.66
2023-03-18T00:23:29.239Z,100096.78
2023-03-18T00:25:59.903Z,100032.59
2023-03-18T00:28:31.324Z,100099.09
2023-03-18T00:31:04.367Z,100101.06
2023-03-18T00:33:32.284Z,100083.84
2023-03-18T00:36:00.182Z,100058.22
2023-03-18T00:38:29.570Z,100087.00
2023-03-18T00:41:04.527Z,100077.88
2023-03-18T00:43:33.809Z,100077.59
2023-03-18T00:46:03.725Z,100070.34
2023-03-18T00:48:31.517Z,100069.50
2023-03-18T00:50:59.318Z,100075.09
2023-03-18T00:53:27.081Z,100077.88
2023-03-18T00:55:55.360Z,100087.47
2023-03-18T00:58:23.153Z,100090.97
2023-03-18T01:00:52.682Z,100087.47
2023-03-18T01:03:20.458Z,100080.13
2023-03-18T01:05:48.217Z,100086.50
2023-03-18T01:08:15.930Z,100088.31
2023-03-18T01:10:43.828Z,100077.59
2023-03-18T01:13:11.694Z,100074.25
2023-03-18T01:15:39.480Z,100075.97
2023-03-18T01:18:08.712Z,100094.03
2023-03-18T01:20:37.964Z,100083.47
2023-03-18T01:23:08.895Z,100069.13
2023-03-18T01:25:37.410Z,100067.31
2023-03-18T01:28:06.296Z,100074.56
2023-03-18T01:30:35.522Z,100052.94
2023-03-18T01:33:07.148Z,100091.41
2023-03-18T01:35:37.589Z,100086.41
2023-03-18T01:38:06.515Z,100084.88
2023-03-18T01:40:39.924Z,100079.59
2023-03-18T01:43:16.062Z,100086.41
2023-03-18T01:45:48.717Z,100087.09
2023-03-18T01:48:17.795Z,100078.72
2023-03-18T01:50:53.101Z,100069.25
2023-03-18T01:53:22.331Z,100069.25
2023-03-18T01:55:52.164Z,100068.00
2023-03-18T01:58:24.581Z,100057.09
2023-03-18T02:00:58.882Z,100025.03
2023-03-18T02:03:28.762Z,100047.31
2023-03-18T02:05:58.072Z,100042.38
2023-03-18T02:08:25.896Z,100038.59
2023-03-18T02:10:54.315Z,100043.88
2023-03-18T02:13:22.054Z,100054.75
2023-03-18T02:16:08.849Z,100060.63
2023-03-18T02:18:42.203Z,100062.59
2023-03-18T02:21:23.262Z,100071.38
2023-03-18T02:24:01.280Z,100069.34
2023-03-18T02:26:34.976Z,100056.16
2023-03-18T02:29:08.960Z,100050.59
2023-03-18T02:31:47.852Z,100052.41
2023-03-18T02:34:17.265Z,100056.16
2023-03-18T02:36:45.858Z,100050.53
2023-03-18T02:39:15.332Z,100049.34
2023-03-18T02:41:44.800Z,100056.78
2023-03-18T02:44:14.201Z,100055.13
2023-03-18T02:47:05.217Z,100056.38
2023-03-18T02:49:33.595Z,100065.28
2023-03-18T02:52:01.980Z,100076.47
2023-03-18T02:54:31.846Z,100075.41
2023-03-18T02:57:00.387Z,100076.38
2023-03-18T02:59:29.686Z,100074.03
2023-03-18T03:01:58.817Z,100075.59
2023-03-18T03:04:27.239Z,100058.00
2023-03-18T03:06:56.657Z,100085.81
2023-03-18T03:09:36.543Z,100089.84
2023-03-18T03:12:05.684Z,100087.78
2023-03-18T03:14:36.859Z,100090.81
2023-03-18T03:17:05.256Z,100089.97
2023-03-18T03:19:33.205Z,100097.91
2023-03-18T03:22:01.454Z,100100.25
2023-03-18T03:24:30.375Z,100097.47
2023-03-18T03:26:58.150Z,100101.09
2023-03-18T03:29:26.001Z,100096.38
2023-03-18T03:31:55.637Z,100088.34
2023-03-18T03:34:23.688Z,100099.56
2023-03-18T03:36:51.455Z,100071.91
2023-03-18T03:39:19.191Z,100086.91
2023-03-18T03:41:46.940Z,100099.97
2023-03-18T03:44:17.312Z,100101.22
2023-03-18T03:46:49.664Z,100102.47
2023-03-18T03:49:19.022Z,100113.59
2023-03-18T03:51:46.847Z,100115.00
2023-03-18T03:54:15.289Z,100120.28
2023-03-18T03:56:43.290Z,100121.13
2023-03-18T03:59:11.482Z,100088.75
2023-03-18T04:02:08.869Z,100098.34
2023-03-18T04:04:38.753Z,100125.31
2023-03-18T04:07:07.684Z,100124.75
2023-03-18T04:09:36.196Z,100123.50
2023-03-18T04:12:05.583Z,100130.03
2023-03-18T04:14:33.982Z,100123.09
2023-03-18T04:17:01.820Z,100128.69
2023-03-18T04:19:30.443Z,100120.06
2023-03-18T04:21:59.496Z,100136.47
2023-03-18T04:24:27.321Z,100133.97
2023-03-18T04:26:55.098Z,100143.69
2023-03-18T04:29:23.689Z,100146.63
2023-03-18T04:31:51.653Z,100148.88
2023-03-18T04:34:20.530Z,100149.03
2023-03-18T04:36:48.403Z,100154.31
2023-03-18T04:39:17.741Z,100153.31
2023-03-18T04:41:46.426Z,100151.53
2023-03-18T04:44:15.614Z,100166.38
2023-03-18T04:46:49.033Z,100161.50
2023-03-18T04:49:17.201Z,100159.56
2023-03-18T04:51:45.571Z,100160.25
2023-03-18T04:54:24.075Z,100163.44
2023-03-18T04:56:55.017Z,100160.81
2023-03-18T04:59:23.825Z,100168.16
2023-03-18T05:01:53.533Z,100161.88
2023-03-18T05:04:22.095Z,100166.50
2023-03-18T05:06:53.285Z,100158.72
2023-03-18T05:09:28.593Z,100160.91
2023-03-18T05:11:56.852Z,100154.97
2023-03-18T05:14:33.110Z,100162.88
2023-03-18T05:17:02.271Z,100154.25
2023-03-18T05:19:31.510Z,100155.75
2023-03-18T05:22:17.761Z,100158.41
2023-03-18T05:24:49.651Z,100162.88
2023-03-18T05:27:20.127Z,100171.47
2023-03-18T05:29:57.042Z,100150.94
2023-03-18T05:32:32.699Z,100170.25
2023-03-18T05:35:05.564Z,100172.63
2023-03-18T05:37:38.662Z,100167.03
2023-03-18T05:40:11.981Z,100166.19
2023-03-18T05:42:55.448Z,100167.34
2023-03-18T05:45:30.517Z,100170.41
2023-03-18T05:47:58.984Z,100175.69
2023-03-18T05:50:31.788Z,100159.81
2023-03-18T05:53:01.813Z,100182.06
2023-03-18T05:55:36.338Z,100190.69
2023-03-18T05:58:06.019Z,100175.56
2023-03-18T06:00:37.528Z,100196.53
2023-03-18T06:03:05.863Z,100171.56
2023-03-18T06:05:36.252Z,100199.75
2023-03-18T06:08:04.367Z,100206.84
2023-03-18T06:10:35.411Z,100195.16
2023-03-18T06:13:03.188Z,100211.44
2023-03-18T06:15:32.238Z,100209.06
2023-03-18T06:18:00.925Z,100201.84
2023-03-18T06:20:29.547Z,100207.78
2023-03-18T06:22:58.625Z,100197.69
2023-03-18T06:25:27.865Z,100206.00
2023-03-18T06:28:00.023Z,100179.59
2023-03-18T06:30:30.303Z,100204.63
2023-03-18T06:32:58.586Z,100205.59
2023-03-18T06:35:28.138Z,100212.13
2023-03-18T06:37:56.070Z,100210.16
2023-03-18T06:40:25.633Z,100213.22
2023-03-18T06:42:55.035Z,100215.59
2023-03-18T06:45:32.793Z,100214.63
2023-03-18T06:48:06.213Z,100217.00
2023-03-18T06:50:39.747Z,100215.88
2023-03-18T06:53:14.281Z,100203.63
2023-03-18T06:55:43.782Z,100223.38
2023-03-18T06:58:12.121Z,100220.19
2023-03-18T07:00:57.236Z,100224.03
2023-03-18T07:03:28.594Z,100225.31
2023-03-18T07:05:57.258Z,100212.94
2023-03-18T07:08:26.227Z,100208.63
2023-03-18T07:10:57.364Z,100225.84
2023-03-18T07:13:26.301Z,100214.06
2023-03-18T07:15:56.558Z,100237.66
2023-03-18T07:18:26.969Z,100236.56
2023-03-18T07:20:55.033Z,100232.09
2023-03-18T07:23:24.330Z,100238.94
2023-03-18T07:25:52.617Z,100246.56
2023-03-18T07:28:20.979Z,100239.34
2023-03-18T07:30:49.844Z,100212.63
2023-03-18T07:33:17.899Z,100248.38
2023-03-18T07:35:47.074Z,100252.81
2023-03-18T07:38:18.183Z,100238.22
2023-03-18T07:40:46.348Z,100203.72
2023-03-18T07:43:15.851Z,100253.63
2023-03-18T07:45:43.831Z,100258.50
2023-03-18T07:48:11.779Z,100263.50
2023-03-18T07:50:39.877Z,100266.81
2023-03-18T07:53:09.360Z,100271.81
2023-03-18T07:55:38.165Z,100270.69
2023-03-18T07:58:07.544Z,100263.31
2023-03-18T08:00:36.675Z,100278.75
2023-03-18T08:03:05.949Z,100283.44
2023-03-18T08:05:34.430Z,100282.34
2023-03-18T08:08:05.432Z,100263.19
2023-03-18T08:10:35.388Z,100288.19
2023-03-18T08:13:06.136Z,100289.84
2023-03-18T08:15:34.315Z,100276.06
2023-03-18T08:18:02.702Z,100294.41
2023-03-18T08:20:30.474Z,100289.81
2023-03-18T08:23:01.259Z,100295.38
2023-03-18T08:25:29.337Z,100300.09
2023-03-18T08:27:58.525Z,100299.81
2023-03-18T08:30:30.529Z,100296.56
2023-03-18T08:32:58.554Z,100298.94
2023-03-18T08:35:26.529Z,100306.28
2023-03-18T08:37:54.498Z,100285.97
2023-03-18T08:40:22.248Z,100304.03
2023-03-18T08:42:49.945Z,100308.06
2023-03-18T08:45:21.119Z,100305.66
2023-03-18T08:47:48.866Z,100313.28
2023-03-18T08:50:16.794Z,100316.19
2023-03-18T08:52:44.875Z,100314.22
2023-03-18T08:55:12.694Z,100307.66
2023-03-18T08:57:40.627Z,100295.31
2023-03-18T09:00:09.981Z,100320.97
2023-03-18T09:02:39.393Z,100313.44
2023-03-18T09:05:07.906Z,100312.84
2023-03-18T09:07:36.238Z,100308.25
2023-03-18T09:10:04.446Z,100306.00
2023-03-18T09:12:32.246Z,100311.34
2023-03-18T09:15:02.176Z,100308.81
2023-03-18T09:17:45.169Z,100316.47
2023-03-18T09:20:19.649Z,100314.47
2023-03-18T09:22:48.152Z,100310.69
2023-03-18T09:25:16.707Z,100309.56
2023-03-18T09:27:45.784Z,100304.78
2023-03-18T09:30:14.261Z,100300.31
2023-03-18T09:32:42.221Z,100298.66
2023-03-18T09:35:13.117Z,100302.34
2023-03-18T09:37:43.763Z,100303.56
2023-03-18T09:40:20.741Z,100310.38
2023-03-18T09:43:00.334Z,100311.91
2023-03-18T09:45:34.167Z,100309.78
2023-03-18T09:48:40.089Z,100308.72
2023-03-18T09:51:19.838Z,100302.13
2023-03-18T09:53:54.939Z,100300.50
2023-03-18T09:56:26.467Z,100297.09
2023-03-18T09:59:00.226Z,100312.34
2023-03-18T10:01:32.331Z,100311.59
2023-03-18T10:04:06.810Z,100304.56
2023-03-18T10:06:37.872Z,100304.84
2023-03-18T10:09:15.453Z,100303.06
2023-03-18T10:11:44.996Z,100306.22
2023-03-18T10:14:21.940Z,100281.31
2023-03-18T10:17:02.657Z,100319.66
2023-03-18T10:19:30.499Z,100289.44
2023-03-18T10:22:12.118Z,100199.53
2023-03-18T10:24:50.701Z,100312.63
2023-03-18T10:27:22.326Z,100314.69
2023-03-18T10:30:01.268Z,100317.50
2023-03-18T10:32:49.114Z,100320.66
2023-03-18T10:35:27.819Z,100306.94
2023-03-18T10:38:04.622Z,100315.91
2023-03-18T10:40:38.459Z,100283.16
2023-03-18T10:43:16.808Z,100317.81
2023-03-18T10:45:47.136Z,100212.44
2023-03-18T10:48:24.298Z,100317.31
2023-03-18T10:51:02.306Z,100313.22
2023-03-18T10:53:36.062Z,100301.13
2023-03-18T10:56:08.807Z,100271.94
2023-03-18T10:58:38.700Z,100270.53
2023-03-18T11:01:09.949Z,100226.63
2023-03-18T11:03:43.718Z,100311.41
2023-03-18T11:06:20.073Z,100309.97
2023-03-18T11:08:51.726Z,100225.69
2023-03-18T11:11:29.263Z,100298.84
2023-03-18T11:14:00.045Z,100288.50
2023-03-18T11:16:35.682Z,100301.66
2023-03-18T11:19:25.437Z,100329.97
2023-03-18T11:22:05.862Z,100221.81
2023-03-18T11:24:43.865Z,100240.31
2023-03-18T11:27:37.614Z,100241.94
2023-03-18T11:30:34.842Z,100277.72
2023-03-18T11:33:17.160Z,100253.13
2023-03-18T11:35:51.343Z,100310.66
2023-03-18T11:38:22.558Z,100333.09
2023-03-18T11:40:50.510Z,100320.72
2023-03-18T11:43:22.954Z,100225.22
2023-03-18T11:45:55.091Z,100332.34
2023-03-18T11:48:32.091Z,100328.44
2023-03-18T11:51:33.664Z,100330.13
2023-03-18T11:54:35.650Z,100326.81
2023-03-18T11:57:12.202Z,100244.41
2023-03-18T12:00:00.480Z,100314.16
2023-03-18T12:03:01.136Z,100304.34
2023-03-18T12:05:46.983Z,100291.22
2023-03-18T12:08:25.413Z,100313.81
2023-03-18T12:11:06.388Z,100316.59
2023-03-18T12:13:45.122Z,100329.06
2023-03-18T12:16:27.657Z,100321.59
2023-03-18T12:19:26.616Z,100320.09
2023-03-18T12:22:07.702Z,100298.03
2023-03-18T12:24:54.702Z,100301.66
2023-03-18T12:27:34.811Z,100306.81
2023-03-18T12:30:15.443Z,100301.97
2023-03-18T12:32:52.457Z,100298.09
2023-03-18T12:35:36.842Z,100307.59
2023-03-18T12:38:31.331Z,100292.97
2023-03-18T12:41:07.987Z,100284.34
2023-03-18T12:43:52.593Z,100292.78
2023-03-18T12:46:28.624Z,100296.53
2023-03-18T12:49:06.107Z,100250.34
2023-03-18T12:51:41.946Z,100298.78
2023-03-18T12:54:18.085Z,100266.06
2023-03-18T12:56:51.086Z,100286.53
2023-03-18T12:59:25.521Z,100281.59
2023-03-18T13:02:07.313Z,100280.34
2023-03-18T13:04:41.856Z,100279.69
2023-03-18T13:07:18.051Z,100269.00
2023-03-18T13:09:52.647Z,100268.16
2023-03-18T13:12:24.724Z,100256.63
2023-03-18T13:14:58.494Z,100254.19
2023-03-18T13:17:31.457Z,100253.00
2023-03-18T13:20:02.930Z,100239.06
2023-03-18T13:22:49.547Z,100262.25
2023-03-18T13:25:29.587Z,100250.09
2023-03-18T13:28:22.945Z,100257.63
2023-03-18T13:31:03.428Z,100257.59
2023-03-18T13:33:47.461Z,100248.75
2023-03-18T13:36:46.548Z,100250.75
2023-03-18T13:39:36.040Z,100254.78
2023-03-18T13:42:25.880Z,100249.09
2023-03-18T13:45:02.258Z,100240.03
2023-03-18T13:47:33.428Z,100236.91
2023-03-18T13:50:03.718Z,100197.41
2023-03-18T13:52:42.040Z,100243.94
2023-03-18T13:55:26.132Z,100247.63
2023-03-18T13:57:58.823Z,100226.03
2023-03-18T14:00:34.436Z,100241.97
2023-03-18T14:03:16.073Z,100237.66
2023-03-18T14:05:45.646Z,100244.66
2023-03-18T14:08:49.629Z,100224.84
2023-03-18T14:11:46.857Z,100238.50
2023-03-18T14:14:40.528Z,100241.16
2023-03-18T14:17:18.416Z,100237.16
2023-03-18T14:19:47.151Z,100248.16
2023-03-18T14:22:22.948Z,100237.72
2023-03-18T14:25:35.287Z,100245.56
2023-03-18T14:28:24.737Z,100232.41
2023-03-18T14:31:17.805Z,100238.06
2023-03-18T14:33:58.277Z,100234.75
2023-03-18T14:36:45.265Z,100247.06
2023-03-18T14:39:18.896Z,100227.28
2023-03-18T14:41:53.376Z,100229.59
2023-03-18T14:44:25.283Z,100228.97
2023-03-18T14:46:58.180Z,100225.38
2023-03-18T14:49:42.154Z,100235.63
2023-03-18T14:52:24.130Z,100226.25
2023-03-18T14:54:55.215Z,100226.44
2023-03-18T14:57:25.791Z,100206.00
2023-03-18T14:59:53.860Z,100219.91
2023-03-18T15:02:25.521Z,100215.03
2023-03-18T15:04:56.637Z,100226.97
2023-03-18T15:07:34.827Z,100186.94
2023-03-18T15:10:05.905Z,100214.72
2023-03-18T15:12:35.115Z,100211.91
2023-03-18T15:15:03.036Z,100194.28
2023-03-18T15:17:31.408Z,100224.09
2023-03-18T15:20:00.359Z,100219.91
2023-03-18T15:22:31.176Z,100212.06
2023-03-18T15:25:02.339Z,100210.88
2023-03-18T15:27:32.951Z,100209.72
2023-03-18T15:30:04.760Z,100186.84
2023-03-18T15:32:34.245Z,100189.56
2023-03-18T15:35:17.286Z,100177.91
2023-03-18T15:37:46.732Z,100186.25
2023-03-18T15:40:27.071Z,100218.00
2023-03-18T15:42:57.039Z,100203.03
2023-03-18T15:45:30.955Z,100182.00
2023-03-18T15:48:05.682Z,100210.66
2023-03-18T15:50:34.683Z,100211.84
2023-03-18T15:53:05.011Z,100209.34
2023-03-18T15:55:37.291Z,100206.81
2023-03-18T15:58:06.942Z,100210.78
2023-03-18T16:00:36.202Z,100188.56
2023-03-18T16:03:04.030Z,100208.94
2023-03-18T16:05:32.235Z,100208.78
2023-03-18T16:08:00.204Z,100207.94
2023-03-18T16:10:28.090Z,100205.97
2023-03-18T16:13:01.484Z,100198.16
2023-03-18T16:15:29.885Z,100211.63
2023-03-18T16:17:59.083Z,100209.78
2023-03-18T16:20:29.079Z,100215.09
2023-03-18T16:22:57.220Z,100207.81
2023-03-18T16:25:26.203Z,100210.66
2023-03-18T16:27:57.098Z,100219.81
2023-03-18T16:30:27.720Z,100214.50
2023-03-18T16:32:56.663Z,100216.22
2023-03-18T16:35:27.870Z,100212.31
2023-03-18T16:37:55.619Z,100215.59
2023-03-18T16:40:25.112Z,100214.31
2023-03-18T16:42:53.536Z,100222.16
2023-03-18T16:45:25.218Z,100230.03
2023-03-18T16:47:55.539Z,100220.03
2023-03-18T16:50:28.376Z,100231.34
2023-03-18T16:52:56.148Z,100229.22
2023-03-18T16:55:24.452Z,100236.22
2023-03-18T16:57:55.776Z,100220.97
2023-03-18T17:00:26.121Z,100215.88
2023-03-18T17:02:53.843Z,100106.13
2023-03-18T17:05:22.458Z,100238.81
2023-03-18T17:07:54.006Z,100241.47
2023-03-18T17:10:23.778Z,100213.91
2023-03-18T17:12:55.648Z,100200.47
2023-03-18T17:15:27.541Z,100203.84
2023-03-18T17:17:58.183Z,100248.34
2023-03-18T17:20:28.250Z,100252.03
2023-03-18T17:23:01.694Z,100245.53
2023-03-18T17:25:31.030Z,100243.53
2023-03-18T17:28:01.159Z,100212.13
2023-03-18T17:30:33.465Z,100250.53
2023-03-18T17:33:02.280Z,100239.19
2023-03-18T17:35:30.258Z,100229.75
2023-03-18T17:37:58.076Z,100256.63
2023-03-18T17:40:29.939Z,100259.09
2023-03-18T17:42:57.793Z,100260.47
2023-03-18T17:45:30.004Z,100253.28
2023-03-18T17:48:02.579Z,100258.44
2023-03-18T17:50:30.448Z,100261.59
2023-03-18T17:52:58.711Z,100260.28
2023-03-18T17:55:28.213Z,100259.75
2023-03-18T17:57:56.781Z,100261.75
2023-03-18T18:00:26.459Z,100262.06
2023-03-18T18:02:55.492Z,100266.03
2023-03-18T18:05:24.267Z,100271.53
2023-03-18T18:07:53.072Z,100271.34
2023-03-18T18:10:21.580Z,100278.78
2023-03-18T18:12:50.802Z,100245.94
2023-03-18T18:15:21.334Z,100281.47
2023-03-18T18:17:49.341Z,100265.09
2023-03-18T18:20:18.198Z,100283.69
2023-03-18T18:22:50.401Z,100218.97
2023-03-18T18:25:21.562Z,100274.63
2023-03-18T18:27:50.778Z,100275.88
2023-03-18T18:30:26.328Z,100271.47
2023-03-18T18:32:54.427Z,100234.66
2023-03-18T18:35:25.025Z,100290.97
2023-03-18T18:37:53.057Z,100281.97
2023-03-18T18:40:20.916Z,100264.94
2023-03-18T18:42:50.484Z,100285.41
2023-03-18T18:45:20.929Z,100293.13
2023-03-18T18:47:49.012Z,100285.66
2023-03-18T18:50:19.510Z,100286.09
2023-03-18T18:52:47.607Z,100286.69
2023-03-18T18:55:15.800Z,100274.50
2023-03-18T18:57:43.816Z,100298.56
2023-03-18T19:00:19.862Z,100289.13
2023-03-18T19:02:47.748Z,100294.44
2023-03-18T19:05:17.627Z,100242.63
2023-03-18T19:07:46.479Z,100298.13
2023-03-18T19:10:16.072Z,100300.63
2023-03-18T19:12:45.083Z,100298.28
2023-03-18T19:15:15.693Z,100294.09
2023-03-18T19:17:48.010Z,100301.00
2023-03-18T19:20:31.240Z,100304.63
2023-03-18T19:22:59.420Z,100259.09
2023-03-18T19:25:27.619Z,100275.28
2023-03-18T19:27:55.752Z,100247.34
2023-03-18T19:30:25.166Z,100313.31
2023-03-18T19:32:54.396Z,100301.13
2023-03-18T19:35:22.399Z,100262.13
2023-03-18T19:37:51.198Z,100220.53
2023-03-18T19:40:29.874Z,100291.78
2023-03-18T19:42:59.329Z,100274.72
2023-03-18T19:45:27.308Z,100271.00
2023-03-18T19:47:56.787Z,100225.19
2023-03-18T19:50:24.567Z,100319.47
2023-03-18T19:52:54.021Z,100320.59
2023-03-18T19:55:24.969Z,100301.63
2023-03-18T19:57:56.173Z,100309.91
2023-03-18T20:00:27.548Z,100217.06
2023-03-18T20:02:58.335Z,100184.19
2023-03-18T20:05:27.108Z,100214.97
2023-03-18T20:07:55.107Z,100234.72
2023-03-18T20:10:23.425Z,100332.22
2023-03-18T20:12:52.219Z,100341.41
2023-03-18T20:15:21.736Z,100318.63
2023-03-18T20:17:50.715Z,100344.22
2023-03-18T20:20:21.790Z,100334.47
2023-03-18T20:22:53.797Z,100264.59
2023-03-18T20:25:25.076Z,100344.22
2023-03-18T20:27:56.286Z,100340.59
2023-03-18T20:30:27.760Z,100260.59
2023-03-18T20:32:56.296Z,100335.63
2023-03-18T20:35:29.358Z,100342.25
2023-03-18T20:37:59.131Z,100341.28
2023-03-18T20:40:29.115Z,100338.91
2023-03-18T20:42:57.052Z,100349.78
2023-03-18T20:45:26.132Z,100346.00
2023-03-18T20:47:54.014Z,100335.00
2023-03-18T20:50:25.322Z,100333.63
2023-03-18T20:52:54.472Z,100344.47
2023-03-18T20:55:25.567Z,100345.31
2023-03-18T20:57:55.463Z,100334.19
2023-03-18T21:00:26.842Z,100347.13
2023-03-18T21:02:56.335Z,100343.94
2023-03-18T21:05:25.079Z,100338.50
2023-03-18T21:07:54.429Z,100334.47
2023-03-18T21:10:23.680Z,100340.59
2023-03-18T21:12:52.020Z,100342.94
2023-03-18T21:15:21.841Z,100343.63
2023-03-18T21:17:50.102Z,100326.44
2023-03-18T21:20:22.590Z,100341.13
2023-03-18T21:22:51.796Z,100322.81
2023-03-18T21:25:24.299Z,100341.84
2023-03-18T21:27:52.765Z,100336.78
2023-03-18T21:30:22.513Z,100341.25
2023-03-18T21:32:51.431Z,100325.25
2023-03-18T21:35:21.757Z,100340.50
2023-03-18T21:37:49.867Z,100333.31
2023-03-18T21:40:19.728Z,100339.81
2023-03-18T21:42:49.312Z,100347.06
2023-03-18T21:45:19.471Z,100342.09
2023-03-18T21:47:47.365Z,100318.06
2023-03-18T21:50:23.989Z,100340.00
2023-03-18T21:52:52.665Z,100340.00
2023-03-18T21:55:21.049Z,100333.94
2023-03-18T21:57:50.534Z,100335.16
2023-03-18T22:00:21.074Z,100337.81
2023-03-18T22:02:49.507Z,100309.63
2023-03-18T22:05:19.521Z,100314.94
2023-03-18T22:07:47.646Z,100332.16
2023-03-18T22:10:16.628Z,100338.44
2023-03-18T22:12:44.824Z,100333.44
2023-03-18T22:15:35.981Z,100331.78
2023-03-18T22:18:03.919Z,100330.09
2023-03-18T22:20:32.853Z,100325.66
2023-03-18T22:23:00.574Z,100330.09
2023-03-18T22:25:30.946Z,100325.66
2023-03-18T22:27:59.447Z,100327.47
2023-03-18T22:30:30.425Z,100322.03
2023-03-18T22:32:59.435Z,100333.97
2023-03-18T22:35:29.514Z,100325.50
2023-03-18T22:37:57.449Z,100351.38
2023-03-18T22:40:27.170Z,100349.81
2023-03-18T22:42:57.565Z,100355.06
2023-03-18T22:45:27.645Z,100349.47
2023-03-18T22:47:58.767Z,100354.16
2023-03-18T22:50:28.857Z,100343.50
2023-03-18T22:53:00.186Z,100346.69
2023-03-18T22:55:33.163Z,100346.69
2023-03-18T22:58:01.255Z,100345.44
2023-03-18T23:00:36.065Z,100347.88
2023-03-18T23:03:11.318Z,100358.75
2023-03-18T23:05:39.325Z,100380.19
2023-03-18T23:08:07.558Z,100381.72
2023-03-18T23:10:36.320Z,100369.19
2023-03-18T23:13:12.346Z,100366.69
2023-03-18T23:15:40.144Z,100367.66
2023-03-18T23:18:13.572Z,100366.28
2023-03-18T23:20:41.412Z,100366.56
2023-03-18T23:23:09.397Z,100358.75
2023-03-18T23:25:37.256Z,100348.31
2023-03-18T23:28:05.231Z,100352.94
2023-03-18T23:30:33.576Z,100348.91
2023-03-18T23:33:01.671Z,100342.66
2023-03-18T23:35:30.868Z,100333.66
2023-03-18T23:37:58.554Z,100339.34
2023-03-18T23:40:27.162Z,100338.53
2023-03-18T23:42:55.093Z,100340.91
2023-03-18T23:45:24.663Z,100344.94
2023-03-18T23:47:52.466Z,100349.25
2023-03-18T23:50:20.413Z,100350.34
2023-03-18T23:52:49.622Z,100343.53
2023-03-18T23:55:33.205Z,100343.41
2023-03-18T23:58:02.053Z,100347.03
